Time;durP1;ratioP1;P1;durP2;ratioP2;P2;SDS_P1;SDS_P2;PMS_P1;PMS_P2;Temp;Humidity;BMP_temperature;BMP_pressure;BME280_temperature;BME280_humidity;BME280_pressure;Samples;Min_cycle;Max_cycle;Signal;HPM_P1;HPM_P2
2021/06/28 00:00:13;;;;;;;4.70;3.33;;;20.60;99.90;;;;;;5015452;28;20057;-84
2021/06/28 00:02:42;;;;;;;5.80;3.50;;;20.50;99.90;;;;;;5019530;28;20525;-86
2021/06/28 00:05:11;;;;;;;4.82;2.88;;;20.50;99.90;;;;;;5011116;28;20050;-86
2021/06/28 00:07:38;;;;;;;5.03;3.10;;;20.50;99.90;;;;;;5011779;28;20038;-87
2021/06/28 00:10:07;;;;;;;5.25;3.20;;;20.40;99.90;;;;;;5007537;28;21441;-87
2021/06/28 00:12:35;;;;;;;6.32;3.33;;;20.40;99.90;;;;;;5033603;28;20053;-87
2021/06/28 00:15:04;;;;;;;4.28;3.15;;;20.40;99.90;;;;;;5028910;28;20034;-87
2021/06/28 00:17:31;;;;;;;4.32;3.15;;;20.40;99.90;;;;;;5016558;28;20054;-84
2021/06/28 00:19:59;;;;;;;4.38;3.15;;;20.40;99.90;;;;;;5012506;28;20044;-85
2021/06/28 00:22:26;;;;;;;4.47;3.17;;;20.40;99.90;;;;;;5031753;28;20049;-85
2021/06/28 00:24:52;;;;;;;5.10;3.00;;;20.40;99.90;;;;;;5010124;28;20069;-86
2021/06/28 00:27:23;;;;;;;4.20;2.95;;;20.40;99.90;;;;;;5033303;28;20068;-85
2021/06/28 00:29:49;;;;;;;4.75;3.03;;;20.40;99.90;;;;;;5027609;28;20083;-85
2021/06/28 00:32:16;;;;;;;4.95;3.40;;;20.40;99.90;;;;;;5029974;28;20042;-85
2021/06/28 00:34:43;;;;;;;4.70;3.47;;;20.40;99.90;;;;;;5027516;28;20034;-87
2021/06/28 00:37:11;;;;;;;4.55;3.58;;;20.30;99.90;;;;;;5006597;28;20046;-86
2021/06/28 00:39:38;;;;;;;6.05;3.60;;;20.30;99.90;;;;;;5014019;28;20038;-86
2021/06/28 00:42:06;;;;;;;4.15;3.28;;;20.20;99.90;;;;;;5018074;28;20053;-86
2021/06/28 00:44:33;;;;;;;5.45;3.28;;;20.20;99.90;;;;;;5011303;28;20046;-86
2021/06/28 00:47:00;;;;;;;5.57;3.65;;;20.20;99.90;;;;;;5011110;28;20049;-86
2021/06/28 00:49:26;;;;;;;4.65;3.25;;;20.30;99.90;;;;;;5013290;28;20055;-87
2021/06/28 00:51:56;;;;;;;5.38;3.65;;;20.20;99.90;;;;;;5014996;28;20118;-86
2021/06/28 00:54:24;;;;;;;5.25;3.50;;;20.20;99.90;;;;;;5025372;28;20470;-87
2021/06/28 00:56:51;;;;;;;5.38;3.65;;;20.20;99.90;;;;;;5018791;28;20041;-86
2021/06/28 00:59:18;;;;;;;5.65;3.40;;;21.80;99.90;;;;;;5006205;28;20069;-86
2021/06/28 01:01:45;;;;;;;5.03;3.60;;;20.20;99.90;;;;;;5009996;28;20042;-83
2021/06/28 01:04:12;;;;;;;4.60;3.67;;;20.20;99.90;;;;;;5011813;28;20050;-86
2021/06/28 01:06:39;;;;;;;5.05;3.58;;;20.20;99.90;;;;;;5016283;28;20045;-86
2021/06/28 01:09:06;;;;;;;4.93;3.60;;;20.20;99.90;;;;;;5018396;28;20046;-86
2021/06/28 01:11:34;;;;;;;5.13;3.72;;;20.20;99.90;;;;;;5014350;28;20041;-86
2021/06/28 01:14:02;;;;;;;5.30;3.65;;;20.30;99.90;;;;;;5033786;28;20450;-87
2021/06/28 01:16:29;;;;;;;4.95;3.70;;;20.30;99.90;;;;;;5008577;28;20050;-85
2021/06/28 01:18:57;;;;;;;4.55;3.05;;;20.20;99.90;;;;;;5012903;28;20072;-86
2021/06/28 01:21:27;;;;;;;6.00;3.70;;;20.20;99.90;;;;;;5007832;28;20103;-85
2021/06/28 01:23:56;;;;;;;4.60;3.58;;;20.30;99.90;;;;;;5020490;28;20060;-85
2021/06/28 01:26:23;;;;;;;5.23;3.97;;;20.30;99.90;;;;;;5016072;28;20080;-85
2021/06/28 01:28:50;;;;;;;7.80;3.92;;;20.30;99.90;;;;;;5029381;28;20052;-85
2021/06/28 01:31:17;;;;;;;5.50;3.47;;;20.20;99.90;;;;;;5014378;28;20099;-86
2021/06/28 01:33:44;;;;;;;4.28;3.35;;;20.20;99.90;;;;;;5013589;28;20072;-86
2021/06/28 01:36:11;;;;;;;4.57;3.63;;;20.20;99.90;;;;;;5009763;28;20080;-85
2021/06/28 01:38:38;;;;;;;4.82;3.35;;;20.20;99.90;;;;;;5011996;28;20045;-86
2021/06/28 01:41:06;;;;;;;4.18;3.03;;;20.20;99.90;;;;;;5013480;28;20042;-86
2021/06/28 01:43:33;;;;;;;4.28;3.10;;;20.10;99.90;;;;;;5013198;28;20049;-86
2021/06/28 01:46:00;;;;;;;4.95;3.30;;;20.10;99.90;;;;;;5012007;28;20050;-86
2021/06/28 01:48:27;;;;;;;3.90;3.00;;;20.20;99.90;;;;;;5013912;28;20050;-85
2021/06/28 01:50:54;;;;;;;4.10;3.13;;;20.20;99.90;;;;;;5026367;28;20041;-86
2021/06/28 01:53:21;;;;;;;4.78;3.30;;;20.20;99.90;;;;;;5010040;28;20041;-85
2021/06/28 01:55:48;;;;;;;5.53;3.40;;;20.20;99.90;;;;;;5031548;28;20046;-86
2021/06/28 01:58:17;;;;;;;5.72;3.58;;;22.00;99.90;;;;;;5012983;28;20103;-86
2021/06/28 02:00:47;;;;;;;6.40;3.33;;;20.10;99.90;;;;;;5009445;28;20049;-86
2021/06/28 02:03:16;;;;;;;4.88;3.35;;;20.10;99.90;;;;;;5025606;28;20095;-86
2021/06/28 02:05:45;;;;;;;4.70;3.53;;;20.10;99.90;;;;;;5012319;28;20045;-86
2021/06/28 02:08:14;;;;;;;6.13;3.35;;;20.10;99.90;;;;;;5010072;28;20461;-86
2021/06/28 02:10:42;;;;;;;4.60;3.40;;;20.10;99.90;;;;;;5005165;28;20096;-87
2021/06/28 02:13:09;;;;;;;5.25;3.50;;;20.00;99.90;;;;;;5013298;28;20041;-88
2021/06/28 02:15:37;;;;;;;4.93;3.80;;;20.00;99.90;;;;;;5030470;28;20037;-86
2021/06/28 02:18:06;;;;;;;6.53;3.60;;;20.10;99.90;;;;;;5076008;23;20044;-85
2021/06/28 02:20:33;;;;;;;5.35;3.53;;;20.20;99.90;;;;;;5068318;28;20574;-85
2021/06/28 02:23:18;;;;;;;8.18;3.75;;;20.10;99.90;;;;;;5074909;28;20044;-84
2021/06/28 02:25:45;;;;;;;9.60;3.45;;;21.00;99.90;;;;;;5064936;28;20094;-84
2021/06/28 02:28:12;;;;;;;4.85;3.22;;;20.00;99.90;;;;;;5067180;28;20048;-86
2021/06/28 02:30:40;;;;;;;4.55;3.45;;;21.70;99.90;;;;;;5064935;28;20056;-85
2021/06/28 02:33:07;;;;;;;5.10;3.25;;;21.70;99.90;;;;;;5063096;28;20048;-85
2021/06/28 02:35:34;;;;;;;5.10;3.58;;;21.60;99.90;;;;;;5064659;28;20045;-86
2021/06/28 02:38:02;;;;;;;5.68;3.65;;;20.00;99.90;;;;;;5064093;28;20051;-84
2021/06/28 02:40:29;;;;;;;6.20;3.58;;;20.00;99.90;;;;;;5060555;28;20410;-85
2021/06/28 02:42:56;;;;;;;4.15;3.20;;;19.90;99.90;;;;;;5064751;28;20040;-84
2021/06/28 02:45:23;;;;;;;8.07;3.80;;;20.90;99.90;;;;;;5062281;28;20053;-84
2021/06/28 02:47:51;;;;;;;4.30;3.50;;;19.60;99.90;;;;;;5063867;28;20048;-84
2021/06/28 02:50:19;;;;;;;10.93;3.60;;;19.80;99.90;;;;;;5065142;28;20041;-85
2021/06/28 02:52:46;;;;;;;5.85;3.47;;;19.60;99.90;;;;;;5068105;28;20040;-84
2021/06/28 02:55:13;;;;;;;5.05;3.58;;;19.70;99.90;;;;;;5070982;28;20489;-84
2021/06/28 02:57:41;;;;;;;5.00;3.70;;;19.80;99.90;;;;;;5071027;28;20048;-85
2021/06/28 03:00:10;;;;;;;4.28;3.30;;;19.50;99.90;;;;;;5072555;28;20048;-86
2021/06/28 03:02:37;;;;;;;6.32;3.60;;;19.80;99.90;;;;;;5085131;28;20037;-85
2021/06/28 03:05:08;;;;;;;4.55;3.60;;;19.70;99.90;;;;;;5070039;28;20064;-85
2021/06/28 03:07:35;;;;;;;6.47;3.80;;;19.70;99.90;;;;;;5069191;28;20101;-85
2021/06/28 03:10:04;;;;;;;5.07;3.65;;;20.90;99.90;;;;;;5064308;28;20498;-85
2021/06/28 03:12:31;;;;;;;4.97;3.58;;;19.70;99.90;;;;;;5062401;28;20452;-86
2021/06/28 03:14:58;;;;;;;5.60;3.55;;;20.00;99.90;;;;;;5069824;28;20094;-84
2021/06/28 03:17:24;;;;;;;5.43;3.75;;;19.80;99.90;;;;;;5067724;28;20060;-85
2021/06/28 03:19:51;;;;;;;5.38;3.88;;;19.50;99.90;;;;;;5067849;28;20052;-83
2021/06/28 03:22:19;;;;;;;6.10;3.80;;;21.30;99.90;;;;;;5069120;28;20052;-85
2021/06/28 03:24:46;;;;;;;6.03;3.88;;;21.80;99.90;;;;;;5070659;28;20045;-83
2021/06/28 03:27:13;;;;;;;4.72;3.38;;;19.90;99.90;;;;;;5068402;28;20045;-85
2021/06/28 03:29:40;;;;;;;4.70;3.30;;;20.40;99.90;;;;;;5070979;28;20055;-85
2021/06/28 03:32:07;;;;;;;4.82;3.47;;;19.80;99.90;;;;;;5068527;28;20445;-84
2021/06/28 03:34:34;;;;;;;6.97;3.38;;;19.70;99.90;;;;;;5071543;28;20452;-85
2021/06/28 03:37:01;;;;;;;4.85;3.42;;;19.60;99.90;;;;;;5062197;28;20051;-84
2021/06/28 03:39:30;;;;;;;6.05;3.58;;;19.60;99.90;;;;;;5065152;28;20045;-84
2021/06/28 03:41:57;;;;;;;4.90;3.58;;;19.30;99.90;;;;;;5070028;28;20040;-83
2021/06/28 03:44:24;;;;;;;5.53;3.78;;;19.60;99.90;;;;;;5070662;28;20127;-85
2021/06/28 03:46:51;;;;;;;6.53;3.78;;;19.60;99.90;;;;;;5085230;28;20060;-86
2021/06/28 03:49:18;;;;;;;5.90;3.70;;;19.60;99.90;;;;;;5068574;28;20118;-85
2021/06/28 03:51:45;;;;;;;4.50;3.55;;;19.70;99.90;;;;;;5069469;28;20497;-83
2021/06/28 03:54:11;;;;;;;4.78;3.53;;;20.00;99.90;;;;;;5069511;28;20448;-84
2021/06/28 03:56:40;;;;;;;6.95;3.80;;;19.80;99.90;;;;;;5070521;28;20102;-83
2021/06/28 03:59:07;;;;;;;4.32;3.25;;;19.80;99.90;;;;;;5066382;28;20049;-85
2021/06/28 04:01:35;;;;;;;4.90;3.60;;;19.70;99.90;;;;;;5068501;28;20048;-85
2021/06/28 04:04:02;;;;;;;6.45;3.47;;;19.60;99.90;;;;;;5067185;28;20037;-85
2021/06/28 04:06:29;;;;;;;4.85;3.63;;;19.70;99.90;;;;;;5055115;28;20434;-86
2021/06/28 04:08:56;;;;;;;5.32;4.00;;;19.60;99.90;;;;;;5061871;28;20052;-84
2021/06/28 04:11:23;;;;;;;6.38;3.95;;;19.80;99.90;;;;;;5068442;28;20095;-84
2021/06/28 04:13:52;;;;;;;5.35;3.90;;;19.80;99.90;;;;;;5063160;28;20044;-83
2021/06/28 04:16:19;;;;;;;7.10;3.50;;;19.60;99.90;;;;;;5067724;28;20045;-85
2021/06/28 04:18:46;;;;;;;6.43;3.63;;;19.80;99.90;;;;;;5064453;28;20065;-85
2021/06/28 04:21:12;;;;;;;4.40;3.50;;;21.70;99.90;;;;;;5072486;28;20056;-83
2021/06/28 04:23:39;;;;;;;5.85;3.95;;;19.80;99.90;;;;;;5070059;28;20040;-85
2021/06/28 04:26:06;;;;;;;6.15;3.83;;;19.90;99.90;;;;;;5073457;28;20052;-86
2021/06/28 04:28:33;;;;;;;4.85;3.50;;;21.70;99.90;;;;;;5067267;28;20048;-85
2021/06/28 04:31:03;;;;;;;4.88;3.47;;;19.90;99.90;;;;;;5068718;28;20586;-87
2021/06/28 04:33:30;;;;;;;6.10;3.72;;;19.90;99.90;;;;;;5074049;28;20559;-84
2021/06/28 04:35:57;;;;;;;4.82;3.30;;;21.40;99.90;;;;;;5065469;28;20025;-85
2021/06/28 04:38:24;;;;;;;6.25;3.97;;;19.70;99.90;;;;;;5066652;28;20049;-84
2021/06/28 04:40:52;;;;;;;5.15;3.95;;;19.70;99.90;;;;;;5075160;28;20075;-85
2021/06/28 04:43:19;;;;;;;5.68;3.95;;;19.60;99.90;;;;;;5070788;28;20041;-85
2021/06/28 04:45:46;;;;;;;5.50;4.10;;;19.40;99.90;;;;;;5062890;28;20048;-85
2021/06/28 04:48:15;;;;;;;6.00;4.03;;;18.10;99.90;;;;;;5063225;28;20452;-84
2021/06/28 04:50:42;;;;;;;5.93;4.05;;;19.30;99.90;;;;;;5076139;28;20046;-85
2021/06/28 04:53:09;;;;;;;5.22;3.78;;;20.00;99.90;;;;;;5072227;28;20037;-84
2021/06/28 04:55:36;;;;;;;4.25;3.45;;;19.70;99.90;;;;;;5073230;28;20041;-85
2021/06/28 04:58:04;;;;;;;7.43;3.88;;;20.20;99.90;;;;;;5074167;28;20098;-85
2021/06/28 05:00:31;;;;;;;7.13;4.15;;;19.90;99.90;;;;;;5071387;28;20099;-85
2021/06/28 05:02:58;;;;;;;5.50;3.97;;;21.70;99.90;;;;;;5074068;28;20040;-85
2021/06/28 05:05:26;;;;;;;4.80;3.85;;;20.00;99.90;;;;;;5071531;28;20056;-85
2021/06/28 05:07:53;;;;;;;6.47;4.40;;;20.10;99.90;;;;;;5070118;28;20418;-86
2021/06/28 05:10:20;;;;;;;7.45;4.13;;;20.20;99.90;;;;;;5066751;28;20099;-85
2021/06/28 05:12:47;;;;;;;6.43;4.18;;;20.20;99.90;;;;;;5056498;28;20430;-85
2021/06/28 05:15:15;;;;;;;7.78;3.92;;;22.20;99.90;;;;;;5060921;28;20036;-85
2021/06/28 05:17:42;;;;;;;8.07;4.10;;;20.20;99.90;;;;;;5070789;28;20098;-84
2021/06/28 05:20:11;;;;;;;4.93;3.90;;;20.00;99.90;;;;;;5072952;28;20044;-85
2021/06/28 05:22:41;;;;;;;4.65;3.75;;;20.30;99.90;;;;;;5067903;28;20057;-86
2021/06/28 05:25:10;;;;;;;6.05;3.80;;;20.30;99.90;;;;;;5067051;28;20049;-84
2021/06/28 05:27:37;;;;;;;5.00;3.60;;;20.50;99.90;;;;;;5063186;28;20441;-86
2021/06/28 05:30:07;;;;;;;4.65;3.45;;;20.70;99.90;;;;;;5069404;28;20029;-85
2021/06/28 05:32:35;;;;;;;4.60;3.70;;;20.60;99.90;;;;;;5079837;28;20494;-84
2021/06/28 05:35:03;;;;;;;4.97;3.83;;;20.70;99.90;;;;;;5065523;28;20044;-85
2021/06/28 05:37:30;;;;;;;6.47;4.13;;;20.80;99.90;;;;;;5067272;28;20052;-85
2021/06/28 05:40:06;;;;;;;8.77;4.20;;;20.70;99.90;;;;;;5054065;28;20059;-85
2021/06/28 05:42:33;;;;;;;5.32;4.00;;;20.70;99.90;;;;;;5067957;28;20037;-85
2021/06/28 05:45:00;;;;;;;9.35;4.70;;;20.80;99.90;;;;;;5064214;28;20045;-85
2021/06/28 05:47:27;;;;;;;5.72;4.28;;;20.60;99.90;;;;;;5060374;28;20250;-85
2021/06/28 05:49:54;;;;;;;6.47;4.72;;;20.60;99.90;;;;;;5060385;28;20048;-85
2021/06/28 05:52:21;;;;;;;7.88;4.18;;;21.80;99.90;;;;;;5073702;28;20037;-83
2021/06/28 05:54:49;;;;;;;7.00;4.45;;;20.80;99.90;;;;;;5058338;28;20098;-85
2021/06/28 05:57:19;;;;;;;5.93;4.25;;;20.90;99.90;;;;;;5073950;28;20047;-85
2021/06/28 05:59:46;;;;;;;6.65;3.60;;;22.00;99.90;;;;;;5069935;28;20053;-84
2021/06/28 06:02:15;;;;;;;4.85;3.90;;;21.30;99.90;;;;;;5073323;28;20040;-85
2021/06/28 06:04:42;;;;;;;5.75;3.63;;;21.30;99.90;;;;;;5063126;28;20037;-85
2021/06/28 06:07:10;;;;;;;8.45;4.10;;;23.20;99.90;;;;;;5073547;28;20068;-85
2021/06/28 06:09:37;;;;;;;6.30;4.10;;;22.80;99.90;;;;;;5073434;28;20036;-85
2021/06/28 06:12:05;;;;;;;4.88;3.75;;;23.10;99.90;;;;;;5074650;28;20045;-86
2021/06/28 06:14:34;;;;;;;5.43;3.78;;;21.60;99.90;;;;;;5073835;28;20056;-85
2021/06/28 06:17:01;;;;;;;5.63;3.70;;;21.70;99.90;;;;;;5064165;28;20128;-86
2021/06/28 06:19:28;;;;;;;6.75;3.97;;;22.60;99.90;;;;;;5065848;28;20049;-89
2021/06/28 06:22:07;;;;;;;;;;;;;;;;;;;;;
2021/06/28 06:25:12;;;;;;;5.85;3.35;;;23.70;99.90;;;;;;5022101;28;20041;-85
2021/06/28 06:27:40;;;;;;;4.72;3.25;;;23.10;99.90;;;;;;5007177;28;20053;-85
2021/06/28 06:30:11;;;;;;;5.30;3.72;;;21.80;99.90;;;;;;5008968;28;20062;-85
2021/06/28 06:32:46;;;;;;;5.05;3.25;;;21.70;99.90;;;;;;5005232;28;20053;-85
2021/06/28 06:35:14;;;;;;;4.85;3.67;;;22.20;99.90;;;;;;5025371;28;20324;-85
2021/06/28 06:37:42;;;;;;;5.72;3.50;;;21.60;99.90;;;;;;5026777;28;20053;-85
2021/06/28 06:40:09;;;;;;;5.40;3.75;;;21.60;99.90;;;;;;5020212;28;20041;-87
2021/06/28 06:42:37;;;;;;;4.75;3.42;;;21.60;99.90;;;;;;5009602;28;20069;-86
2021/06/28 06:45:05;;;;;;;5.20;3.60;;;21.40;99.90;;;;;;5012135;28;20045;-85
2021/06/28 06:47:34;;;;;;;4.00;3.05;;;21.40;99.90;;;;;;5002683;28;20533;-84
2021/06/28 06:50:02;;;;;;;5.82;3.40;;;21.50;99.90;;;;;;5001742;28;20413;-85
2021/06/28 06:52:29;;;;;;;5.82;3.63;;;21.60;99.90;;;;;;5002582;28;20049;-83
2021/06/28 06:54:55;;;;;;;5.65;3.75;;;21.60;99.90;;;;;;5032944;28;20422;-85
2021/06/28 06:57:28;;;;;;;;;;;22.20;99.90;;;;;;5019117;28;20045;-86
2021/06/28 06:59:58;;;;;;;4.57;3.67;;;22.10;99.90;;;;;;5015571;28;20261;-89
2021/06/28 07:02:25;;;;;;;4.78;3.60;;;22.40;99.90;;;;;;5053823;28;20117;-85
2021/06/28 07:04:53;;;;;;;4.45;3.20;;;21.60;99.90;;;;;;5071013;28;20044;-86
2021/06/28 07:07:20;;;;;;;4.97;3.30;;;22.60;99.90;;;;;;5070445;28;20048;-83
2021/06/28 07:09:47;;;;;;;5.13;3.58;;;23.10;99.90;;;;;;5049063;28;20052;-86
2021/06/28 07:12:14;;;;;;;7.53;3.95;;;21.90;99.90;;;;;;5070130;28;20066;-85
2021/06/28 07:14:41;;;;;;;5.20;3.65;;;21.90;99.90;;;;;;5070461;28;20048;-87
2021/06/28 07:17:08;;;;;;;5.10;3.55;;;22.70;99.90;;;;;;5068982;28;20079;-84
2021/06/28 07:19:35;;;;;;;5.78;4.05;;;22.40;99.90;;;;;;5064629;28;20079;-85
2021/06/28 07:22:03;;;;;;;6.10;4.10;;;22.00;99.90;;;;;;5062337;28;20434;-86
2021/06/28 07:24:31;;;;;;;6.40;4.20;;;21.90;99.90;;;;;;5062943;28;20246;-85
2021/06/28 07:26:58;;;;;;;6.07;4.60;;;21.90;99.90;;;;;;5068917;28;20048;-86
2021/06/28 07:29:25;;;;;;;6.28;3.85;;;22.00;99.90;;;;;;5070782;28;20053;-87
2021/06/28 07:31:51;;;;;;;6.97;4.40;;;22.30;99.90;;;;;;5064988;28;20037;-84
2021/06/28 07:34:19;;;;;;;6.63;4.20;;;22.00;99.90;;;;;;5067692;28;20056;-86
2021/06/28 07:36:45;;;;;;;9.27;4.50;;;22.00;99.90;;;;;;5071105;28;20098;-85
2021/06/28 07:39:14;;;;;;;5.80;4.05;;;22.10;99.90;;;;;;5065955;28;20044;-83
2021/06/28 07:41:40;;;;;;;5.68;4.07;;;22.80;99.90;;;;;;5072231;28;20060;-83
2021/06/28 07:44:08;;;;;;;5.82;3.90;;;22.20;99.90;;;;;;5068707;28;20052;-85
2021/06/28 07:46:35;;;;;;;5.95;3.80;;;22.70;99.90;;;;;;5072817;28;20041;-85
2021/06/28 07:49:03;;;;;;;5.95;3.92;;;22.30;99.90;;;;;;5071145;28;20045;-84
2021/06/28 07:51:31;;;;;;;5.78;3.88;;;22.30;99.90;;;;;;5071071;28;20044;-85
2021/06/28 07:53:58;;;;;;;5.10;3.83;;;22.40;99.90;;;;;;5070315;28;20192;-84
2021/06/28 07:56:26;;;;;;;5.53;3.95;;;22.50;99.90;;;;;;5060676;28;20078;-85
2021/06/28 07:58:53;;;;;;;7.78;4.00;;;22.60;99.90;;;;;;5057738;28;20045;-85
2021/06/28 08:01:21;;;;;;;6.10;4.32;;;22.60;99.90;;;;;;5051786;28;20391;-87
2021/06/28 08:03:48;;;;;;;5.25;3.92;;;22.70;99.90;;;;;;5064053;28;20110;-87
2021/06/28 08:06:17;;;;;;;6.10;4.07;;;22.60;99.90;;;;;;5070753;28;20549;-83
2021/06/28 08:08:45;;;;;;;5.85;3.83;;;22.70;99.90;;;;;;5069756;28;20044;-85
2021/06/28 08:11:12;;;;;;;6.22;4.10;;;24.70;99.90;;;;;;5069439;28;20051;-88
2021/06/28 08:13:43;;;;;;;5.70;3.90;;;22.90;99.90;;;;;;5067601;28;20049;-86
2021/06/28 08:16:10;;;;;;;6.00;4.00;;;23.10;99.90;;;;;;5071994;28;20040;-86
2021/06/28 08:21:07;;;;;;;7.63;3.80;;;23.30;99.90;;;;;;5062470;28;20521;-83
2021/06/28 08:23:33;;;;;;;7.53;3.95;;;23.40;99.90;;;;;;5046044;28;20524;-89
2021/06/28 08:26:00;;;;;;;6.38;4.22;;;23.50;99.90;;;;;;5052169;28;20064;-84
2021/06/28 08:28:27;;;;;;;8.90;4.35;;;23.50;99.90;;;;;;5051212;28;20065;-89
2021/06/28 08:30:55;;;;;;;7.30;4.10;;;23.40;99.90;;;;;;5070733;28;20452;-86
2021/06/28 08:33:23;;;;;;;7.28;3.80;;;23.90;99.90;;;;;;5064911;28;20079;-84
2021/06/28 08:35:50;;;;;;;5.63;4.38;;;23.50;99.90;;;;;;5054769;28;20033;-84
2021/06/28 08:38:17;;;;;;;5.95;4.00;;;23.70;99.90;;;;;;5054280;28;20114;-84
2021/06/28 08:40:45;;;;;;;6.72;3.85;;;23.80;99.90;;;;;;5068919;28;20053;-85
2021/06/28 08:43:12;;;;;;;6.20;4.15;;;23.90;99.90;;;;;;5054615;28;20478;-86
2021/06/28 08:45:41;;;;;;;6.53;4.28;;;23.90;99.90;;;;;;5054032;28;20052;-85
2021/06/28 08:48:10;;;;;;;5.95;3.72;;;23.90;99.90;;;;;;5052611;28;20516;-86
2021/06/28 08:50:40;;;;;;;5.18;4.18;;;23.90;99.90;;;;;;5066641;28;20056;-86
2021/06/28 08:53:09;;;;;;;7.18;4.35;;;24.10;99.90;;;;;;5046388;28;20053;-85
2021/06/28 08:55:39;;;;;;;6.43;4.30;;;24.10;99.90;;;;;;5057528;28;20516;-86
2021/06/28 08:58:06;;;;;;;6.50;3.90;;;24.10;99.90;;;;;;5050672;28;20044;-84
2021/06/28 09:00:33;;;;;;;5.20;3.75;;;24.90;99.90;;;;;;5053864;28;20048;-84
2021/06/28 09:03:04;;;;;;;8.43;4.53;;;24.30;99.90;;;;;;5049164;28;20044;-85
2021/06/28 09:05:51;;;;;;;4.82;3.92;;;24.30;99.90;;;;;;5070482;28;20052;-84
2021/06/28 09:08:19;;;;;;;7.28;4.47;;;24.30;99.90;;;;;;5056909;28;20040;-84
2021/06/28 09:10:46;;;;;;;5.88;4.20;;;24.40;99.90;;;;;;5054953;28;20048;-84
2021/06/28 09:13:13;;;;;;;4.88;3.88;;;24.60;99.90;;;;;;5056206;28;20484;-82
2021/06/28 09:15:42;;;;;;;8.57;4.63;;;24.80;99.90;;;;;;5059861;28;20554;-87
2021/06/28 09:18:22;;;;;;;6.43;4.05;;;24.90;99.90;;;;;;5053786;28;20086;-83
2021/06/28 09:20:51;;;;;;;4.97;4.00;;;25.10;99.90;;;;;;5071369;28;20493;-87
2021/06/28 09:23:21;;;;;;;6.78;4.10;;;25.10;99.90;;;;;;5070741;28;20048;-87
2021/06/28 09:25:49;;;;;;;5.63;3.97;;;25.20;99.90;;;;;;5063947;28;20047;-85
2021/06/28 09:28:30;;;;;;;5.97;4.00;;;25.20;99.90;;;;;;5041127;28;20493;-84
2021/06/28 09:30:57;;;;;;;6.43;4.20;;;25.30;99.90;;;;;;5054327;28;20040;-83
2021/06/28 09:33:24;;;;;;;6.72;3.90;;;26.00;99.90;;;;;;5055450;28;20068;-86
2021/06/28 09:35:52;;;;;;;4.70;3.47;;;25.50;99.90;;;;;;5057752;28;20102;-83
2021/06/28 09:38:32;;;;;;;4.60;3.20;;;25.50;99.90;;;;;;5054544;28;20044;-84
2021/06/28 09:41:24;;;;;;;4.60;3.10;;;25.70;99.90;;;;;;5066503;28;20048;-83
2021/06/28 09:43:52;;;;;;;3.90;2.88;;;26.00;99.90;;;;;;5074808;28;20512;-84
2021/06/28 09:46:21;;;;;;;5.63;2.85;;;26.20;99.10;;;;;;5059297;28;20062;-85
2021/06/28 09:48:49;;;;;;;4.90;2.80;;;26.30;99.70;;;;;;5064139;28;20044;-87
2021/06/28 09:51:25;;;;;;;4.88;2.90;;;26.40;99.80;;;;;;5074131;28;20083;-86
2021/06/28 09:53:53;;;;;;;4.25;2.85;;;26.50;98.80;;;;;;5056269;28;20106;-85
2021/06/28 09:56:29;;;;;;;6.30;3.20;;;26.50;98.40;;;;;;5061420;28;20061;-84
2021/06/28 09:58:56;;;;;;;5.75;2.75;;;26.60;97.20;;;;;;5054292;28;20060;-88
2021/06/28 10:01:25;;;;;;;4.63;3.22;;;26.60;98.50;;;;;;5054330;28;20493;-84
2021/06/28 10:03:55;;;;;;;6.63;3.25;;;26.60;98.70;;;;;;5055949;28;20083;-86
2021/06/28 10:08:51;;;;;;;4.25;2.75;;;26.70;97.70;;;;;;5072810;28;20443;-85
2021/06/28 10:11:20;;;;;;;3.78;2.67;;;26.80;98.30;;;;;;5074302;28;20610;-87
2021/06/28 10:13:52;;;;;;;4.78;3.00;;;27.10;98.40;;;;;;5054579;28;20040;-85
2021/06/28 10:16:22;;;;;;;4.95;2.75;;;27.90;98.90;;;;;;5041221;28;20453;-86
2021/06/28 10:18:49;;;;;;;5.25;2.70;;;27.60;96.90;;;;;;5057156;28;20041;-85
2021/06/28 10:21:16;;;;;;;4.20;2.67;;;27.90;96.80;;;;;;5067920;28;20055;-85
2021/06/28 10:23:45;;;;;;;4.28;2.80;;;28.00;97.60;;;;;;5053419;28;20334;-85
2021/06/28 10:26:12;;;;;;;3.72;2.50;;;28.20;96.50;;;;;;5069012;28;20098;-84
2021/06/28 10:28:40;;;;;;;3.90;2.50;;;29.10;96.80;;;;;;5083810;28;20094;-86
2021/06/28 10:31:08;;;;;;;4.15;2.90;;;28.60;96.40;;;;;;5071650;28;20045;-87
2021/06/28 10:33:37;;;;;;;3.30;2.30;;;28.80;96.80;;;;;;5055037;28;20463;-85
2021/06/28 10:36:07;;;;;;;3.85;2.55;;;29.00;95.60;;;;;;5047332;28;20076;-87
2021/06/28 10:38:46;;;;;;;;;;;28.80;95.00;;;;;;5061571;28;20496;-84
2021/06/28 10:41:13;;;;;;;3.60;2.40;;;28.50;95.40;;;;;;5054118;28;19924;-84
2021/06/28 10:43:40;;;;;;;3.80;2.75;;;28.40;96.40;;;;;;5059963;28;20303;-87
2021/06/28 10:46:08;;;;;;;3.63;2.72;;;28.30;96.40;;;;;;5047492;28;20044;-87
2021/06/28 10:48:46;;;;;;;5.77;2.67;;;28.00;96.10;;;;;;5049110;28;20060;-84
2021/06/28 10:51:14;;;;;;;4.25;2.63;;;27.70;96.50;;;;;;5053835;28;20360;-83
2021/06/28 10:54:11;;;;;;;4.28;2.72;;;27.80;97.30;;;;;;5050279;28;20059;-84
2021/06/28 10:56:50;;;;;;;4.78;2.75;;;28.00;98.10;;;;;;5087398;28;20443;-85
2021/06/28 10:59:19;;;;;;;3.40;2.65;;;27.80;97.20;;;;;;5047816;28;20201;-84
2021/06/28 11:01:47;;;;;;;4.75;2.58;;;27.70;97.10;;;;;;5049578;28;20075;-85
2021/06/28 11:04:16;;;;;;;3.40;2.40;;;27.60;96.20;;;;;;5047547;28;20112;-85
2021/06/28 11:07:11;;;;;;;3.30;2.60;;;27.70;96.50;;;;;;5053211;28;20037;-85
2021/06/28 11:09:42;;;;;;;4.07;2.63;;;27.80;95.80;;;;;;5052439;28;20048;-85
2021/06/28 11:12:28;;;;;;;3.90;2.70;;;27.90;97.20;;;;;;5056273;28;20049;-85
2021/06/28 11:15:09;;;;;;;3.75;2.78;;;28.00;96.60;;;;;;5051592;28;20045;-85
2021/06/28 11:17:48;;;;;;;3.72;2.60;;;28.20;95.60;;;;;;5050107;28;20550;-86
2021/06/28 11:20:21;;;;;;;3.90;3.00;;;28.20;95.10;;;;;;5053234;28;20052;-84
2021/06/28 11:22:55;;;;;;;4.75;2.90;;;28.00;96.10;;;;;;5082017;28;20048;-86
2021/06/28 11:25:25;;;;;;;3.80;2.92;;;28.00;96.80;;;;;;5066482;28;20048;-86
2021/06/28 11:28:35;;;;;;;4.50;3.13;;;27.70;96.20;;;;;;5049389;28;20044;-84
2021/06/28 11:31:05;;;;;;;5.35;3.10;;;27.60;97.60;;;;;;5057154;28;20059;-84
2021/06/28 11:33:43;;;;;;;5.22;3.20;;;27.40;96.60;;;;;;5042154;28;20115;-84
2021/06/28 11:36:31;;;;;;;4.70;3.13;;;27.10;96.40;;;;;;5079464;28;20041;-84
2021/06/28 11:39:00;;;;;;;5.22;3.28;;;26.90;96.00;;;;;;5055880;28;20044;-83
2021/06/28 11:41:30;;;;;;;6.30;3.38;;;26.90;96.90;;;;;;5052798;28;20032;-86
2021/06/28 11:43:58;;;;;;;4.93;3.30;;;26.80;97.60;;;;;;5044482;28;20500;-85
2021/06/28 11:46:27;;;;;;;4.60;3.50;;;26.80;98.40;;;;;;5056619;28;20036;-85
2021/06/28 11:48:55;;;;;;;5.55;3.60;;;26.80;97.20;;;;;;5049720;28;20290;-85
2021/06/28 11:51:23;;;;;;;4.25;3.47;;;27.20;98.10;;;;;;5059190;28;20099;-84
2021/06/28 11:53:53;;;;;;;6.13;3.63;;;26.70;97.70;;;;;;5061063;28;20036;-85
2021/06/28 11:56:29;;;;;;;9.10;3.97;;;26.60;98.00;;;;;;5051123;28;20116;-84
2021/06/28 11:59:00;;;;;;;4.97;3.47;;;26.60;98.10;;;;;;5062123;28;20386;-86
2021/06/28 12:01:30;;;;;;;29.85;5.82;;;26.60;98.40;;;;;;5065998;28;20043;-84
2021/06/28 12:03:58;;;;;;;25.77;6.22;;;28.10;98.80;;;;;;5065711;28;20452;-85
2021/06/28 12:06:27;;;;;;;9.77;3.75;;;26.60;99.10;;;;;;5048609;28;20052;-84
2021/06/28 12:09:07;;;;;;;8.07;3.78;;;26.60;99.20;;;;;;5065925;28;20036;-82
2021/06/28 12:11:37;;;;;;;4.40;3.38;;;26.50;98.70;;;;;;5054152;28;20036;-83
2021/06/28 12:14:05;;;;;;;5.22;3.67;;;26.40;99.50;;;;;;5051987;28;20051;-83
2021/06/28 12:16:32;;;;;;;5.90;3.88;;;26.40;99.10;;;;;;5070808;28;20045;-85
2021/06/28 12:19:05;;;;;;;4.95;3.50;;;26.40;99.70;;;;;;5071166;28;20459;-84
2021/06/28 12:21:34;;;;;;;4.90;3.72;;;26.50;99.20;;;;;;5062675;28;20052;-84
2021/06/28 12:24:06;;;;;;;4.75;3.63;;;26.80;98.70;;;;;;5051657;28;20098;-85
2021/06/28 12:26:34;;;;;;;4.47;3.35;;;27.00;98.70;;;;;;5049754;28;20448;-86
2021/06/28 12:29:28;;;;;;;5.25;3.60;;;27.30;99.20;;;;;;5050354;28;20060;-84
2021/06/28 12:32:00;;;;;;;4.35;3.25;;;27.50;98.10;;;;;;5044236;28;22565;-84
2021/06/28 12:34:27;;;;;;;5.90;3.67;;;27.70;97.30;;;;;;5054337;28;20044;-85
2021/06/28 12:36:54;;;;;;;5.80;3.30;;;27.80;97.90;;;;;;5057323;28;20102;-85
2021/06/28 12:39:22;;;;;;;4.68;3.60;;;28.00;97.40;;;;;;5052438;28;20049;-85
2021/06/28 12:41:50;;;;;;;7.13;3.90;;;28.30;97.80;;;;;;5055436;28;20501;-84
2021/06/28 12:44:17;;;;;;;7.72;3.80;;;28.30;96.70;;;;;;5059013;28;20106;-84
2021/06/28 12:46:46;;;;;;;5.05;3.63;;;28.60;96.50;;;;;;5058578;28;20044;-83
2021/06/28 12:49:13;;;;;;;4.55;3.83;;;28.80;96.60;;;;;;5054778;28;20047;-84
2021/06/28 12:51:41;;;;;;;6.07;3.83;;;29.30;97.00;;;;;;5068756;28;20036;-85
2021/06/28 12:54:24;;;;;;;5.03;3.75;;;28.80;96.70;;;;;;5052878;28;20041;-85
2021/06/28 12:56:50;;;;;;;4.68;3.75;;;28.60;96.80;;;;;;5067881;28;20083;-84
2021/06/28 12:59:32;;;;;;;5.68;3.85;;;29.00;97.20;;;;;;5061305;28;20036;-85
2021/06/28 13:02:00;;;;;;;5.22;3.70;;;29.00;95.80;;;;;;5063012;28;20045;-84